📊 Raw Sensor Data
Showing records 42051 to 42075 of 84,993 total
| ID | Distance (ft) | Battery V | Battery A | Int Temp (°F) | Int Humid (%) | Ext Temp (°F) | Solar V | RSSI | SNR | Time Stamp |
|---|---|---|---|---|---|---|---|---|---|---|
| 42955 | 15.4 | 3.98 | -5 | 62 | 46 | 62 | 0.00 | -69 | 7 | 06/08/2025 09:45 PM |
| 42954 | 15.4 | 3.98 | -5 | 63 | 46 | 62 | 0.00 | -69 | 7 | 06/08/2025 09:30 PM |
| 42953 | 15.4 | 3.98 | -5 | 63 | 47 | 63 | 0.00 | -68 | 7 | 06/08/2025 09:15 PM |
| 42952 | 15.3 | 3.98 | -5 | 64 | 47 | 64 | 0.00 | -69 | 8 | 06/08/2025 09:00 PM |
| 42951 | 15.3 | 3.98 | -5 | 65 | 48 | 65 | 0.40 | -72 | 6 | 06/08/2025 08:45 PM |
| 42950 | 15.4 | 3.97 | -9 | 67 | 48 | 66 | 3.30 | -69 | 8 | 06/08/2025 08:30 PM |
| 42949 | 15.4 | 4.04 | -5 | 69 | 48 | 67 | 4.50 | -70 | 7 | 06/08/2025 08:15 PM |
| 42948 | 15.4 | 3.99 | 0 | 70 | 48 | 68 | 4.50 | -69 | 8 | 06/08/2025 08:00 PM |
| 42947 | 15.4 | 4.06 | 0 | 72 | 48 | 70 | 4.50 | -70 | 8 | 06/08/2025 07:45 PM |
| 42946 | 15.4 | 4.06 | 6 | 73 | 49 | 71 | 4.50 | -70 | 8 | 06/08/2025 07:30 PM |
| 42945 | 15.4 | 4.08 | 6 | 76 | 49 | 72 | 4.50 | -71 | 8 | 06/08/2025 07:15 PM |
| 42944 | 15.4 | 4.08 | 11 | 79 | 47 | 75 | 4.50 | -70 | 8 | 06/08/2025 07:00 PM |
| 42943 | 15.4 | 4.03 | 0 | 80 | 47 | 78 | 5.10 | -69 | 7 | 06/08/2025 06:45 PM |
| 42942 | 15.4 | 4.13 | 68 | 80 | 48 | 77 | 4.50 | -70 | 8 | 06/08/2025 06:30 PM |
| 42941 | 15.4 | 4.13 | 0 | 81 | 49 | 78 | 5.10 | -68 | 7 | 06/08/2025 06:15 PM |
| 42940 | 15.4 | 4.03 | 0 | 83 | 50 | 78 | 5.10 | -69 | 7 | 06/08/2025 06:00 PM |
| 42939 | 15.4 | 4.02 | 0 | 85 | 51 | 80 | 5.10 | -70 | 8 | 06/08/2025 05:45 PM |
| 42938 | 15.4 | 4.02 | 0 | 87 | 52 | 81 | 5.10 | -68 | 7 | 06/08/2025 05:30 PM |
| 42937 | 15.5 | 4.02 | 0 | 90 | 51 | 83 | 5.10 | -69 | 8 | 06/08/2025 05:15 PM |
| 42936 | 15.5 | 4.09 | 0 | 93 | 51 | 85 | 5.10 | -70 | 8 | 06/08/2025 05:00 PM |
| 42935 | 15.6 | 4.02 | 0 | 97 | 49 | 88 | 5.10 | -69 | 8 | 06/08/2025 04:45 PM |
| 42934 | 15.7 | 4.14 | 0 | 103 | 45 | 93 | 5.10 | -68 | 8 | 06/08/2025 04:30 PM |
| 42933 | 15.6 | 4.02 | 0 | 101 | 45 | 93 | 5.10 | -69 | 8 | 06/08/2025 04:15 PM |
| 42932 | 15.6 | 4.02 | 0 | 99 | 45 | 93 | 5.10 | -70 | 7 | 06/08/2025 04:00 PM |
| 42931 | 15.6 | 4.02 | 0 | 100 | 43 | 91 | 5.10 | -71 | 8 | 06/08/2025 03:45 PM |